Time;durP1;ratioP1;P1;durP2;ratioP2;P2;SDS_P1;SDS_P2;PMS_P1;PMS_P2;Temp;Humidity;BMP_temperature;BMP_pressure;BME280_temperature;BME280_humidity;BME280_pressure;Samples;Min_cycle;Max_cycle;Signal;HPM_P1;HPM_P2
2021/03/10 00:02:18;;;;;;;12.07;9.98;;;21.00;48.50;;;;;;5072106;28;20383;-58
2021/03/10 00:04:44;;;;;;;12.48;10.10;;;21.00;48.50;;;;;;5072491;28;20016;-57
2021/03/10 00:07:10;;;;;;;13.95;10.23;;;21.00;48.50;;;;;;5054287;28;20024;-57
2021/03/10 00:09:36;;;;;;;11.30;10.10;;;21.00;48.50;;;;;;5072564;28;20466;-58
2021/03/10 00:12:03;;;;;;;10.13;8.90;;;21.00;48.50;;;;;;5054698;28;20020;-57
2021/03/10 00:14:28;;;;;;;12.18;9.35;;;20.90;48.50;;;;;;5052519;28;20112;-57
2021/03/10 00:16:54;;;;;;;11.77;8.93;;;20.90;48.40;;;;;;5072385;28;20519;-57
2021/03/10 00:19:21;;;;;;;12.05;8.80;;;20.90;48.50;;;;;;5053622;28;20028;-57
2021/03/10 00:21:47;;;;;;;9.52;8.43;;;20.90;48.40;;;;;;5053715;28;20406;-57
2021/03/10 00:24:13;;;;;;;10.95;8.50;;;20.90;48.40;;;;;;5053447;28;20031;-57
2021/03/10 00:26:49;;;;;;;;;;;;;;;;;;;;;
2021/03/10 00:29:26;;;;;;;9.15;7.53;;;20.90;48.40;;;;;;5079183;28;20432;-57
2021/03/10 00:31:53;;;;;;;11.45;7.72;;;20.90;48.30;;;;;;5067029;28;20038;-57
2021/03/10 00:34:19;;;;;;;9.95;6.53;;;20.90;48.30;;;;;;5071333;28;20098;-57
2021/03/10 00:36:45;;;;;;;9.60;7.25;;;20.90;48.30;;;;;;5071640;28;20043;-58
2021/03/10 00:39:11;;;;;;;8.90;6.95;;;20.80;48.20;;;;;;5052786;28;20047;-57
2021/03/10 00:41:37;;;;;;;10.23;6.95;;;20.80;48.30;;;;;;5071704;28;20053;-57
2021/03/10 00:44:03;;;;;;;8.40;6.10;;;20.80;48.30;;;;;;5072234;28;20079;-57
2021/03/10 00:46:29;;;;;;;7.93;6.35;;;20.80;48.30;;;;;;5054503;28;20028;-56
2021/03/10 00:48:55;;;;;;;9.38;7.07;;;20.80;48.30;;;;;;5070134;28;20021;-56
2021/03/10 00:51:21;;;;;;;7.63;5.88;;;20.80;48.40;;;;;;5072434;28;20020;-56
2021/03/10 00:53:47;;;;;;;8.30;5.55;;;20.70;48.20;;;;;;5053923;28;20390;-55
2021/03/10 00:56:13;;;;;;;8.10;5.38;;;20.80;48.30;;;;;;5071966;28;20094;-58
2021/03/10 00:58:39;;;;;;;10.52;5.35;;;20.70;48.20;;;;;;5054033;28;20028;-56
2021/03/10 01:01:05;;;;;;;7.68;5.50;;;20.70;48.20;;;;;;5072074;28;20029;-58
2021/03/10 01:03:31;;;;;;;7.18;5.07;;;20.70;48.30;;;;;;5078251;28;20066;-56
2021/03/10 01:05:57;;;;;;;6.45;5.55;;;20.70;48.20;;;;;;5072250;28;20077;-60
2021/03/10 01:08:24;;;;;;;6.57;5.18;;;20.70;48.20;;;;;;5054077;28;20230;-60
2021/03/10 01:10:50;;;;;;;7.35;5.35;;;20.70;48.30;;;;;;5072526;28;20024;-58
2021/03/10 01:13:16;;;;;;;7.10;4.70;;;20.60;48.20;;;;;;5072855;28;20401;-59
2021/03/10 01:15:42;;;;;;;6.32;4.82;;;20.70;48.20;;;;;;5054277;28;20036;-59
2021/03/10 01:18:08;;;;;;;5.20;4.70;;;20.60;48.20;;;;;;5072263;28;20150;-58
2021/03/10 01:20:35;;;;;;;5.22;4.13;;;20.60;48.20;;;;;;5060272;28;20024;-58
2021/03/10 01:23:01;;;;;;;8.35;4.75;;;20.60;48.20;;;;;;5091524;28;20049;-58
2021/03/10 01:25:27;;;;;;;6.63;5.28;;;20.60;48.20;;;;;;5076494;28;20040;-59
2021/03/10 01:27:53;;;;;;;5.57;4.20;;;20.60;48.20;;;;;;5058443;28;20401;-59
2021/03/10 01:30:20;;;;;;;5.05;4.55;;;20.70;48.20;;;;;;5076446;28;20482;-59
2021/03/10 01:32:46;;;;;;;5.50;4.90;;;20.60;48.10;;;;;;5092074;28;20434;-59
2021/03/10 01:35:13;;;;;;;9.68;4.82;;;20.60;48.10;;;;;;5058227;28;20062;-59
2021/03/10 01:37:39;;;;;;;6.93;3.92;;;20.60;48.10;;;;;;5076118;28;20143;-59
2021/03/10 01:40:08;;;;;;;5.00;4.20;;;20.60;48.20;;;;;;5076216;28;20114;-58
2021/03/10 01:42:34;;;;;;;5.47;4.43;;;20.60;48.20;;;;;;5076190;28;20025;-59
2021/03/10 01:45:00;;;;;;;6.22;4.45;;;20.60;48.10;;;;;;5058414;28;20484;-58
2021/03/10 01:47:26;;;;;;;7.82;4.53;;;20.60;48.20;;;;;;5075922;28;20027;-59
2021/03/10 01:49:52;;;;;;;5.90;4.07;;;20.60;48.10;;;;;;5076044;28;20116;-58
2021/03/10 01:52:18;;;;;;;6.20;3.80;;;20.50;48.10;;;;;;5075837;28;20471;-59
2021/03/10 01:54:44;;;;;;;5.10;3.70;;;20.50;48.10;;;;;;5091608;28;20028;-58
2021/03/10 01:57:10;;;;;;;5.47;3.70;;;20.50;48.10;;;;;;5091399;28;20355;-59
2021/03/10 01:59:36;;;;;;;6.72;4.55;;;20.50;48.10;;;;;;5075971;28;20043;-59
2021/03/10 02:02:02;;;;;;;6.20;4.10;;;20.50;48.20;;;;;;5057607;28;20107;-60
2021/03/10 02:04:28;;;;;;;6.53;4.50;;;20.50;48.10;;;;;;5057883;28;20032;-59
2021/03/10 02:07:11;;;;;;;6.63;4.60;;;20.50;48.10;;;;;;5084328;28;20035;-59
2021/03/10 02:10:02;;;;;;;7.65;3.95;;;20.50;48.10;;;;;;5091374;28;20029;-59
2021/03/10 02:12:47;;;;;;;;;;;20.50;48.20;;;;;;5075940;28;20078;-59
2021/03/10 02:15:16;;;;;;;6.07;3.75;;;20.50;48.20;;;;;;5075852;28;20270;-58
2021/03/10 02:17:48;;;;;;;4.07;3.60;;;20.50;47.90;;;;;;5075493;28;20056;-59
2021/03/10 02:20:37;;;;;;;4.90;3.20;;;20.50;48.00;;;;;;5076110;28;20040;-59
2021/03/10 02:23:18;;;;;;;8.60;4.10;;;20.40;48.10;;;;;;5057335;28;20079;-59
2021/03/10 02:25:47;;;;;;;3.90;3.45;;;20.40;48.10;;;;;;5075279;28;20032;-59
2021/03/10 02:28:13;;;;;;;4.82;3.63;;;20.40;48.10;;;;;;5075311;28;20056;-59
2021/03/10 02:30:42;;;;;;;4.88;3.40;;;20.40;48.10;;;;;;5074983;28;20031;-59
2021/03/10 02:33:18;;;;;;;4.70;3.63;;;20.40;48.10;;;;;;5074899;28;20021;-59
2021/03/10 02:35:50;;;;;;;5.72;3.55;;;20.40;48.20;;;;;;5073605;28;20493;-59
2021/03/10 02:38:20;;;;;;;5.25;3.75;;;20.40;48.10;;;;;;5075239;28;20032;-59
2021/03/10 02:40:48;;;;;;;5.38;4.00;;;20.40;48.20;;;;;;5075460;28;20040;-59
2021/03/10 02:43:15;;;;;;;4.43;3.30;;;20.40;48.20;;;;;;5056962;28;20478;-59
2021/03/10 02:45:43;;;;;;;5.38;3.67;;;20.40;48.10;;;;;;5057245;28;20041;-59
2021/03/10 02:48:10;;;;;;;5.38;3.40;;;20.30;48.10;;;;;;5074907;28;20599;-59
2021/03/10 02:50:38;;;;;;;4.93;3.20;;;20.30;48.20;;;;;;5075053;28;20048;-59
2021/03/10 02:53:06;;;;;;;5.78;3.88;;;20.30;48.20;;;;;;5074872;28;20028;-59
2021/03/10 02:55:32;;;;;;;4.25;3.28;;;20.40;48.20;;;;;;5074824;28;20032;-58
2021/03/10 02:57:59;;;;;;;6.72;3.60;;;20.30;48.20;;;;;;5056952;28;20490;-58
2021/03/10 03:00:25;;;;;;;5.93;3.95;;;20.30;48.10;;;;;;5074653;28;20024;-59
2021/03/10 03:02:52;;;;;;;4.68;3.40;;;20.40;48.20;;;;;;5074849;28;20146;-58
2021/03/10 03:05:18;;;;;;;5.88;3.05;;;20.30;48.10;;;;;;5073895;28;20021;-59
2021/03/10 03:08:06;;;;;;;4.60;3.28;;;20.40;48.20;;;;;;5074995;28;20039;-58
2021/03/10 03:10:52;;;;;;;3.65;3.15;;;20.30;48.20;;;;;;5073209;28;20040;-59
2021/03/10 03:13:21;;;;;;;6.40;3.67;;;20.30;48.10;;;;;;5074421;28;20028;-59
2021/03/10 03:15:54;;;;;;;3.28;2.85;;;20.30;48.10;;;;;;5074540;28;20020;-59
2021/03/10 03:18:24;;;;;;;4.95;3.40;;;20.30;48.10;;;;;;5074007;28;20373;-60
2021/03/10 03:20:53;;;;;;;4.53;2.90;;;20.30;48.10;;;;;;5074226;28;20094;-58
2021/03/10 03:23:21;;;;;;;4.38;3.00;;;20.30;48.20;;;;;;5074013;28;20494;-59
2021/03/10 03:25:49;;;;;;;5.97;3.80;;;20.30;48.10;;;;;;5074366;28;20098;-59
2021/03/10 03:28:25;;;;;;;5.75;3.58;;;20.30;48.00;;;;;;5073591;28;20024;-58
2021/03/10 03:30:53;;;;;;;4.97;3.60;;;20.30;48.10;;;;;;5073672;28;20050;-59
2021/03/10 03:33:23;;;;;;;5.20;4.07;;;20.30;48.10;;;;;;5073199;28;20104;-59
2021/03/10 03:35:55;;;;;;;7.18;4.03;;;20.30;48.10;;;;;;5089057;28;20044;-59
2021/03/10 03:38:24;;;;;;;4.10;3.40;;;20.20;48.00;;;;;;5073059;28;20056;-59
2021/03/10 03:40:52;;;;;;;4.38;3.60;;;20.20;48.00;;;;;;5073302;28;20103;-59
2021/03/10 03:43:18;;;;;;;5.28;3.92;;;20.30;48.20;;;;;;5088199;28;20074;-58
2021/03/10 03:45:45;;;;;;;6.75;3.67;;;20.20;48.00;;;;;;5088911;28;20028;-59
2021/03/10 03:48:12;;;;;;;7.93;4.10;;;20.20;48.10;;;;;;5073509;28;20454;-59
2021/03/10 03:50:40;;;;;;;5.93;4.63;;;20.20;48.00;;;;;;5073818;28;20041;-59
2021/03/10 03:53:07;;;;;;;9.10;4.53;;;20.20;47.90;;;;;;5073387;28;20074;-60
2021/03/10 03:55:35;;;;;;;7.32;4.47;;;20.20;47.90;;;;;;5073827;28;20028;-58
2021/03/10 03:58:01;;;;;;;4.15;3.85;;;20.20;47.80;;;;;;5073563;28;20102;-59
2021/03/10 04:00:27;;;;;;;8.38;5.03;;;20.20;47.80;;;;;;5073175;28;20060;-58
2021/03/10 04:02:53;;;;;;;5.28;4.63;;;20.20;47.70;;;;;;5073188;28;20040;-58
2021/03/10 04:05:20;;;;;;;6.72;4.40;;;20.10;47.60;;;;;;5073525;28;20024;-59
2021/03/10 04:07:50;;;;;;;6.32;4.82;;;20.10;47.70;;;;;;5073270;28;20356;-58
2021/03/10 04:10:18;;;;;;;6.53;4.00;;;20.10;47.70;;;;;;5073720;28;20020;-59
2021/03/10 04:12:44;;;;;;;5.93;4.22;;;20.10;47.70;;;;;;5073057;28;20025;-58
2021/03/10 04:15:12;;;;;;;5.47;4.47;;;20.10;47.70;;;;;;5073491;28;20112;-58
2021/03/10 04:17:39;;;;;;;5.55;4.68;;;20.00;47.60;;;;;;5073020;28;20032;-56
2021/03/10 04:20:10;;;;;;;5.97;4.22;;;20.10;47.60;;;;;;5073545;28;20412;-57
2021/03/10 04:22:36;;;;;;;7.05;4.22;;;20.00;47.50;;;;;;5073106;28;20132;-57
2021/03/10 04:25:03;;;;;;;7.32;4.55;;;20.00;47.50;;;;;;5071002;28;20043;-57
2021/03/10 04:27:29;;;;;;;9.13;4.00;;;20.00;47.50;;;;;;5073302;28;20028;-57
2021/03/10 04:29:55;;;;;;;5.43;4.20;;;20.00;47.60;;;;;;5073004;28;20032;-57
2021/03/10 04:32:21;;;;;;;5.07;4.50;;;19.90;47.60;;;;;;5072970;28;20056;-57
2021/03/10 04:34:47;;;;;;;5.75;4.53;;;19.90;47.60;;;;;;5073026;28;20538;-57
2021/03/10 04:37:13;;;;;;;5.30;4.28;;;19.90;47.50;;;;;;5073041;28;20056;-57
2021/03/10 04:39:39;;;;;;;6.88;4.60;;;19.90;47.60;;;;;;5072580;28;20027;-56
2021/03/10 04:42:06;;;;;;;7.05;4.30;;;19.90;47.60;;;;;;5073120;28;20035;-57
2021/03/10 04:44:32;;;;;;;5.32;4.22;;;19.90;47.70;;;;;;5072785;28;20028;-58
2021/03/10 04:46:58;;;;;;;3.92;3.35;;;19.80;47.60;;;;;;5072944;28;20052;-59
2021/03/10 04:49:24;;;;;;;4.97;3.88;;;19.90;47.60;;;;;;5055155;28;20064;-59
2021/03/10 04:51:50;;;;;;;5.10;3.75;;;19.80;47.60;;;;;;5055261;28;20537;-59
2021/03/10 04:54:16;;;;;;;4.35;3.50;;;19.80;47.70;;;;;;5071589;28;20116;-58
2021/03/10 04:56:42;;;;;;;6.15;3.83;;;19.80;47.70;;;;;;5072914;28;20073;-59
2021/03/10 04:59:08;;;;;;;8.88;4.10;;;19.80;47.70;;;;;;5072730;28;20043;-58
2021/03/10 05:01:34;;;;;;;4.03;3.63;;;19.80;47.80;;;;;;5072678;28;20027;-59
2021/03/10 05:04:00;;;;;;;6.90;4.18;;;19.80;48.20;;;;;;5088619;28;20025;-59
2021/03/10 05:06:28;;;;;;;5.07;3.70;;;19.80;47.80;;;;;;5072635;28;20025;-59
2021/03/10 05:08:54;;;;;;;5.95;4.07;;;19.80;47.70;;;;;;5072784;28;20025;-58
2021/03/10 05:11:20;;;;;;;5.85;3.75;;;19.80;47.80;;;;;;5072639;28;20033;-58
2021/03/10 05:13:48;;;;;;;4.60;3.47;;;19.80;47.80;;;;;;5054574;28;20036;-58
2021/03/10 05:16:15;;;;;;;6.32;3.60;;;19.80;47.70;;;;;;5072119;28;20394;-59
2021/03/10 05:18:41;;;;;;;5.10;3.05;;;19.80;47.70;;;;;;5073007;28;20024;-59
2021/03/10 05:21:07;;;;;;;4.85;3.40;;;19.80;47.70;;;;;;5072013;28;20049;-59
2021/03/10 05:23:33;;;;;;;4.00;3.30;;;19.80;47.60;;;;;;5072368;28;20158;-59
2021/03/10 05:25:59;;;;;;;4.50;3.42;;;19.70;47.60;;;;;;5070644;28;20028;-59
2021/03/10 05:28:25;;;;;;;4.55;3.25;;;19.70;47.60;;;;;;5072236;28;20033;-56
2021/03/10 05:30:51;;;;;;;4.07;3.13;;;19.80;47.60;;;;;;5071852;28;20032;-58
2021/03/10 05:33:18;;;;;;;5.55;3.30;;;19.80;47.50;;;;;;5053711;28;20052;-59
2021/03/10 05:35:44;;;;;;;4.90;3.55;;;19.70;47.40;;;;;;5071827;28;20033;-58
2021/03/10 05:38:10;;;;;;;4.72;3.05;;;19.70;48.00;;;;;;5072134;28;20040;-58
2021/03/10 05:40:36;;;;;;;4.10;3.22;;;19.70;47.40;;;;;;5072148;28;20077;-58
2021/03/10 05:43:02;;;;;;;5.45;3.38;;;19.70;47.30;;;;;;5072021;28;20036;-59
2021/03/10 05:45:29;;;;;;;5.38;3.30;;;19.70;47.30;;;;;;5071952;28;20555;-58
2021/03/10 05:47:55;;;;;;;4.50;3.60;;;19.70;47.30;;;;;;5072428;28;20028;-59
2021/03/10 05:50:21;;;;;;;7.90;3.50;;;19.70;47.30;;;;;;5071934;28;20036;-58
2021/03/10 05:52:48;;;;;;;4.05;3.60;;;19.60;47.20;;;;;;5072002;28;20485;-59
2021/03/10 05:55:16;;;;;;;5.07;4.03;;;19.70;47.30;;;;;;5072022;28;20021;-60
2021/03/10 05:57:43;;;;;;;5.07;3.05;;;19.70;47.40;;;;;;5072288;28;20043;-59
2021/03/10 06:00:14;;;;;;;4.80;2.95;;;19.60;47.40;;;;;;5071880;28;20032;-59
2021/03/10 06:02:41;;;;;;;8.90;3.70;;;19.60;47.40;;;;;;5072469;28;20509;-60
2021/03/10 06:05:23;;;;;;;6.07;3.80;;;19.60;47.40;;;;;;5073193;28;20374;-59
2021/03/10 06:08:06;;;;;;;5.63;3.30;;;19.60;48.00;;;;;;5076384;28;20409;-60
2021/03/10 06:10:44;;;;;;;6.78;3.95;;;19.60;47.40;;;;;;5075678;28;20378;-62
2021/03/10 06:13:21;;;;;;;7.65;3.78;;;19.60;47.30;;;;;;5073098;28;20035;-60
2021/03/10 06:15:48;;;;;;;4.57;3.53;;;19.50;47.30;;;;;;5055976;28;20033;-62
2021/03/10 06:18:26;;;;;;;5.55;3.40;;;19.60;47.40;;;;;;5055667;28;20021;-59
2021/03/10 06:21:14;;;;;;;3.30;3.00;;;19.50;47.40;;;;;;5053940;28;20041;-60
2021/03/10 06:23:56;;;;;;;6.10;4.07;;;19.50;47.50;;;;;;5073195;28;20025;-59
2021/03/10 06:26:24;;;;;;;5.32;3.75;;;19.50;47.50;;;;;;5075674;28;20382;-59
2021/03/10 06:28:50;;;;;;;6.38;3.45;;;19.50;47.50;;;;;;5075555;28;20028;-59
2021/03/10 06:31:21;;;;;;;5.82;3.70;;;19.50;47.60;;;;;;5075348;28;20120;-58
2021/03/10 06:34:13;;;;;;;7.03;3.67;;;19.50;47.60;;;;;;5081966;28;20024;-59
2021/03/10 06:36:44;;;;;;;7.45;4.03;;;19.40;47.60;;;;;;5073874;28;20032;-59
2021/03/10 06:39:22;;;;;;;7.50;3.80;;;19.40;47.50;;;;;;5057489;28;20036;-59
2021/03/10 06:41:48;;;;;;;5.70;3.50;;;19.40;47.50;;;;;;5075078;28;20123;-59
2021/03/10 06:44:14;;;;;;;6.78;4.10;;;19.50;47.60;;;;;;5093069;28;20035;-60
2021/03/10 06:47:01;;;;;;;5.00;3.13;;;19.40;47.60;;;;;;5075261;28;20402;-59
2021/03/10 06:49:34;;;;;;;7.97;4.28;;;19.40;47.60;;;;;;5075397;28;20131;-59
2021/03/10 06:52:06;;;;;;;5.25;3.35;;;19.40;47.60;;;;;;5075001;28;20493;-57
2021/03/10 06:54:32;;;;;;;8.07;4.20;;;19.40;47.60;;;;;;5074800;28;20017;-57
2021/03/10 06:57:02;;;;;;;3.65;3.08;;;19.40;47.70;;;;;;5074521;28;20391;-57
2021/03/10 06:59:49;;;;;;;6.93;3.25;;;19.40;47.70;;;;;;5074449;28;20347;-57
2021/03/10 07:02:30;;;;;;;6.68;3.30;;;19.40;47.70;;;;;;5078163;28;20016;-57
2021/03/10 07:04:57;;;;;;;8.68;3.20;;;19.30;47.70;;;;;;5074772;28;20045;-58
2021/03/10 07:07:25;;;;;;;7.53;3.53;;;19.40;47.80;;;;;;5069694;28;20040;-57
2021/03/10 07:09:52;;;;;;;4.43;3.42;;;19.40;47.80;;;;;;5074080;28;20048;-57
2021/03/10 07:12:19;;;;;;;7.50;3.67;;;19.50;47.80;;;;;;5074260;28;20482;-56
2021/03/10 07:14:47;;;;;;;6.97;4.90;;;19.40;47.70;;;;;;5074501;28;20033;-57
2021/03/10 07:17:14;;;;;;;86.13;67.60;;;19.40;47.70;;;;;;5061402;28;20020;-55
2021/03/10 07:19:42;;;;;;;80.45;67.70;;;19.50;47.80;;;;;;5092024;28;20074;-58
2021/03/10 07:22:13;;;;;;;62.92;54.35;;;19.50;47.80;;;;;;5074390;28;20053;-60
2021/03/10 07:24:52;;;;;;;68.70;57.58;;;19.50;47.70;;;;;;5073410;28;20036;-61
2021/03/10 07:27:20;;;;;;;54.92;48.88;;;19.40;47.70;;;;;;5055742;28;20027;-61
2021/03/10 07:29:47;;;;;;;56.40;47.55;;;19.40;47.60;;;;;;5089161;28;20043;-60
2021/03/10 07:32:22;;;;;;;50.53;43.60;;;19.40;47.60;;;;;;5073686;28;20029;-60
2021/03/10 07:34:59;;;;;;;46.65;37.90;;;19.40;47.60;;;;;;5056504;28;20039;-60
2021/03/10 07:37:25;;;;;;;50.40;37.17;;;19.40;47.60;;;;;;5073595;28;20086;-59
2021/03/10 07:39:50;;;;;;;43.97;35.25;;;19.40;47.70;;;;;;5073734;28;20056;-58
2021/03/10 07:42:20;;;;;;;44.20;33.28;;;19.40;47.70;;;;;;5055531;28;20028;-61
2021/03/10 07:45:05;;;;;;;36.45;30.55;;;19.40;47.80;;;;;;5039204;28;20478;-61
2021/03/10 07:47:31;;;;;;;31.33;26.38;;;19.40;47.90;;;;;;5055741;28;20032;-60
2021/03/10 07:50:00;;;;;;;29.80;25.92;;;19.40;47.90;;;;;;5055703;28;20467;-62
2021/03/10 07:52:28;;;;;;;35.08;24.15;;;19.40;48.00;;;;;;5068754;28;20021;-59
2021/03/10 07:54:59;;;;;;;30.17;24.33;;;19.40;48.00;;;;;;5087011;28;20398;-59
2021/03/10 07:57:26;;;;;;;26.17;22.42;;;19.40;48.20;;;;;;5073320;28;20033;-61
2021/03/10 07:59:56;;;;;;;24.30;21.67;;;19.40;48.10;;;;;;5052050;28;20055;-56
2021/03/10 08:02:28;;;;;;;25.67;22.83;;;19.40;48.20;;;;;;5056077;28;20063;-58
2021/03/10 08:05:00;;;;;;;28.52;24.38;;;19.50;48.30;;;;;;5072816;28;20067;-59
2021/03/10 08:07:29;;;;;;;29.75;25.38;;;19.50;48.30;;;;;;5072451;28;20113;-59
2021/03/10 08:09:56;;;;;;;33.50;26.85;;;19.60;48.40;;;;;;5055423;28;20430;-59
2021/03/10 08:12:36;;;;;;;27.58;24.30;;;19.60;48.40;;;;;;5073145;28;20429;-59
2021/03/10 08:15:07;;;;;;;29.25;25.85;;;19.60;48.40;;;;;;5073438;28;20036;-59
2021/03/10 08:17:33;;;;;;;;;;;19.70;48.40;;;;;;5073456;28;20425;-60
2021/03/10 08:20:24;;;;;;;30.35;23.77;;;19.70;48.40;;;;;;5073226;28;19908;-59
2021/03/10 08:22:52;;;;;;;103.10;89.28;;;19.80;48.20;;;;;;5072398;28;20054;-59
2021/03/10 08:25:18;;;;;;;72.50;59.72;;;19.90;48.20;;;;;;5073029;28;20429;-59
2021/03/10 08:27:44;;;;;;;61.13;50.25;;;19.90;48.20;;;;;;5071411;28;20020;-60
2021/03/10 08:30:14;;;;;;;50.65;42.95;;;19.90;48.20;;;;;;5069552;28;20087;-59
2021/03/10 08:32:41;;;;;;;49.40;40.70;;;19.90;48.20;;;;;;5083609;28;20033;-62
2021/03/10 08:35:11;;;;;;;45.63;38.88;;;19.90;48.10;;;;;;5054543;28;20066;-61
2021/03/10 08:37:38;;;;;;;42.72;34.45;;;19.90;48.10;;;;;;5072824;28;20480;-61
2021/03/10 08:40:07;;;;;;;47.05;34.97;;;20.00;48.10;;;;;;5072460;28;20032;-61
2021/03/10 08:42:33;;;;;;;40.38;33.42;;;20.00;48.20;;;;;;5072770;28;20029;-61
2021/03/10 08:44:59;;;;;;;49.05;40.40;;;20.00;48.20;;;;;;5054553;28;20105;-62
2021/03/10 08:47:27;;;;;;;54.65;43.72;;;20.00;48.20;;;;;;5071905;28;20047;-62
2021/03/10 08:49:58;;;;;;;50.20;40.38;;;20.00;48.30;;;;;;5054253;28;20115;-61
2021/03/10 08:52:26;;;;;;;;;;;20.00;48.30;;;;;;5072152;28;20028;-61
2021/03/10 08:54:57;;;;;;;45.72;34.42;;;20.00;48.30;;;;;;5030617;28;19911;-61
2021/03/10 08:57:30;;;;;;;46.67;38.90;;;20.10;48.20;;;;;;5071305;28;20039;-61
2021/03/10 08:59:57;;;;;;;41.47;35.25;;;20.10;48.20;;;;;;5033965;28;20048;-60
2021/03/10 09:02:31;;;;;;;44.95;37.40;;;20.10;48.20;;;;;;5033743;28;20052;-59
2021/03/10 09:05:00;;;;;;;40.08;33.38;;;20.10;48.30;;;;;;5067246;28;20029;-62
2021/03/10 09:07:27;;;;;;;46.92;41.17;;;20.10;48.30;;;;;;5051614;28;20501;-63
2021/03/10 09:09:58;;;;;;;54.70;42.00;;;20.10;48.30;;;;;;5067156;28;20033;-62
2021/03/10 09:12:27;;;;;;;49.95;42.20;;;20.10;48.40;;;;;;5066611;28;20025;-64
2021/03/10 09:47:21;;;;;;;27.17;15.68;;;20.50;48.60;;;;;;5064231;28;20047;-60
2021/03/10 09:49:56;;;;;;;27.50;13.07;;;20.60;48.90;;;;;;5045164;28;20028;-54
2021/03/10 09:52:38;;;;;;;24.30;13.70;;;20.60;48.90;;;;;;5089616;28;20040;-54
2021/03/10 09:55:17;;;;;;;21.70;11.70;;;20.70;49.00;;;;;;5051585;28;20017;-60
2021/03/10 09:57:44;;;;;;;19.48;12.35;;;20.80;48.80;;;;;;5057466;28;20029;-69
2021/03/10 10:00:21;;;;;;;16.52;9.65;;;20.90;48.80;;;;;;5074225;28;20040;-61
2021/03/10 10:02:52;;;;;;;16.40;8.63;;;20.90;48.90;;;;;;5071212;28;20043;-62
2021/03/10 10:05:29;;;;;;;20.10;10.43;;;21.00;49.20;;;;;;5045455;28;20064;-56
2021/03/10 10:07:57;;;;;;;22.25;15.70;;;21.20;49.10;;;;;;5057736;28;20121;-56
2021/03/10 10:10:25;;;;;;;21.42;18.02;;;21.40;49.30;;;;;;5072367;28;20043;-60
2021/03/10 10:12:54;;;;;;;32.13;25.05;;;21.70;49.00;;;;;;5062009;28;20036;-60
2021/03/10 10:15:36;;;;;;;45.28;40.35;;;22.00;48.50;;;;;;5057836;28;20033;-67
2021/03/10 10:18:06;;;;;;;67.75;54.83;;;22.40;48.10;;;;;;5039563;28;20029;-59
2021/03/10 10:20:35;;;;;;;101.40;89.75;;;22.70;47.20;;;;;;5053696;28;20029;-59
2021/03/10 10:23:06;;;;;;;115.53;103.43;;;23.00;46.50;;;;;;5045260;28;20057;-58
2021/03/10 10:25:38;;;;;;;49.70;44.40;;;23.30;46.10;;;;;;5083026;28;20035;-56
2021/03/10 10:28:08;;;;;;;51.70;44.47;;;23.60;45.30;;;;;;5068224;28;20082;-56
2021/03/10 10:30:35;;;;;;;46.42;37.00;;;23.80;45.10;;;;;;5047266;28;20380;-61
2021/03/10 10:33:01;;;;;;;21.50;16.85;;;24.00;44.50;;;;;;5073288;28;20021;-52
2021/03/10 10:35:32;;;;;;;14.10;12.50;;;24.20;43.80;;;;;;5069081;28;20027;-53
2021/03/10 10:37:59;;;;;;;12.57;8.63;;;24.40;43.40;;;;;;5074723;28;20024;-51
2021/03/10 10:40:25;;;;;;;13.82;6.78;;;24.60;43.00;;;;;;5045197;28;20021;-50
2021/03/10 10:42:52;;;;;;;16.10;8.02;;;24.70;42.40;;;;;;5072476;28;20154;-50
2021/03/10 10:45:19;;;;;;;14.70;6.72;;;24.80;42.20;;;;;;5045211;28;20032;-51
2021/03/10 10:47:46;;;;;;;10.68;6.15;;;24.80;41.50;;;;;;5072476;28;20071;-53
2021/03/10 10:50:21;;;;;;;12.82;6.60;;;24.80;41.50;;;;;;5046437;28;20029;-53
2021/03/10 10:52:51;;;;;;;15.15;8.05;;;24.80;41.50;;;;;;5056568;28;20479;-51
2021/03/10 10:55:19;;;;;;;11.18;6.82;;;24.80;41.60;;;;;;5074207;28;20024;-54
2021/03/10 10:57:51;;;;;;;15.75;6.60;;;24.90;41.50;;;;;;5037219;28;20119;-54
2021/03/10 11:00:23;;;;;;;10.68;4.63;;;25.00;41.50;;;;;;5058057;28;20032;-54
2021/03/10 11:02:51;;;;;;;8.45;4.03;;;25.20;41.50;;;;;;5047802;28;20033;-54
2021/03/10 11:05:24;;;;;;;8.57;4.40;;;25.30;41.30;;;;;;5068851;28;20058;-54
2021/03/10 11:07:56;;;;;;;10.05;3.85;;;25.40;41.20;;;;;;5046065;28;20039;-54
2021/03/10 11:10:22;;;;;;;6.97;3.17;;;25.40;41.40;;;;;;5073816;28;20044;-54
2021/03/10 11:12:52;;;;;;;5.57;2.90;;;25.40;41.40;;;;;;5038703;28;20480;-53
2021/03/10 11:15:26;;;;;;;6.50;3.67;;;25.50;41.50;;;;;;5046056;28;20028;-53
2021/03/10 11:18:09;;;;;;;7.53;3.33;;;25.40;41.60;;;;;;5039622;28;20020;-54
2021/03/10 11:20:36;;;;;;;6.25;3.08;;;25.40;41.60;;;;;;5078085;28;20467;-54
2021/03/10 11:23:02;;;;;;;3.85;2.67;;;25.50;41.60;;;;;;5056405;28;20040;-54
2021/03/10 11:25:27;;;;;;;7.15;3.03;;;25.60;41.80;;;;;;5039893;28;20029;-54
2021/03/10 11:27:54;;;;;;;7.15;2.30;;;25.80;41.10;;;;;;5042493;28;20024;-54
2021/03/10 11:30:21;;;;;;;6.97;2.47;;;25.90;40.80;;;;;;5055005;28;20025;-53
2021/03/10 11:32:48;;;;;;;9.27;2.90;;;26.10;40.70;;;;;;5070726;28;20052;-54
2021/03/10 11:35:22;;;;;;;7.75;2.40;;;26.20;40.50;;;;;;5037844;28;20397;-54
2021/03/10 11:37:49;;;;;;;8.95;2.97;;;26.40;40.20;;;;;;5056103;28;20075;-60
2021/03/10 11:40:15;;;;;;;7.53;2.72;;;26.50;40.30;;;;;;5041763;28;20027;-67
2021/03/10 11:42:45;;;;;;;7.35;2.80;;;26.60;40.20;;;;;;5082325;28;20021;-54
2021/03/10 11:45:12;;;;;;;5.45;2.72;;;26.70;40.20;;;;;;5061469;28;20032;-54
2021/03/10 11:47:38;;;;;;;9.20;3.10;;;26.80;39.60;;;;;;5049112;28;20049;-53
2021/03/10 11:50:05;;;;;;;9.65;3.15;;;26.90;39.50;;;;;;5068753;28;20025;-53
2021/03/10 11:52:31;;;;;;;7.28;3.13;;;27.00;39.30;;;;;;5062788;28;20560;-53
2021/03/10 11:54:57;;;;;;;46.92;41.85;;;27.10;38.80;;;;;;5063333;28;20732;-53
2021/03/10 11:57:23;;;;;;;16.17;12.07;;;27.20;38.60;;;;;;5060718;28;20104;-53
2021/03/10 11:59:49;;;;;;;8.23;5.88;;;27.30;38.30;;;;;;5043903;28;20061;-54
2021/03/10 12:02:22;;;;;;;7.80;4.28;;;27.50;37.80;;;;;;5078837;28;20036;-53
2021/03/10 12:04:53;;;;;;;5.35;3.40;;;27.70;37.50;;;;;;5045018;28;20041;-53
2021/03/10 12:07:20;;;;;;;13.30;4.32;;;27.80;37.30;;;;;;5084621;28;20028;-53
2021/03/10 12:09:45;;;;;;;5.72;3.15;;;27.90;37.20;;;;;;5063384;28;20024;-53
2021/03/10 12:12:11;;;;;;;8.07;3.33;;;27.90;37.40;;;;;;5061782;28;20871;-53
2021/03/10 12:14:50;;;;;;;9.73;2.85;;;27.90;37.40;;;;;;5060921;28;20035;-53
2021/03/10 12:17:16;;;;;;;8.20;3.08;;;28.10;37.70;;;;;;5062953;28;20025;-54
2021/03/10 12:19:43;;;;;;;5.65;2.17;;;28.10;37.10;;;;;;5062131;28;20381;-54
2021/03/10 12:22:09;;;;;;;7.15;2.30;;;28.20;37.30;;;;;;5057459;28;20072;-54
2021/03/10 12:24:35;;;;;;;8.48;2.50;;;28.20;37.10;;;;;;5062362;28;20032;-55
2021/03/10 12:27:01;;;;;;;9.30;7.47;;;28.10;37.50;;;;;;5064064;28;20031;-54
2021/03/10 12:29:27;;;;;;;27.73;24.77;;;28.00;37.40;;;;;;5058735;28;20386;-55
2021/03/10 12:31:54;;;;;;;34.42;30.70;;;27.80;37.50;;;;;;5042781;28;20025;-53
2021/03/10 12:34:20;;;;;;;33.03;29.42;;;27.60;37.60;;;;;;5063796;28;20074;-54
2021/03/10 12:36:46;;;;;;;32.90;29.42;;;27.40;37.90;;;;;;5057938;28;20356;-53
2021/03/10 12:39:12;;;;;;;30.67;25.17;;;27.10;38.10;;;;;;5063206;28;20032;-53
2021/03/10 12:41:38;;;;;;;28.75;23.35;;;26.90;38.60;;;;;;5059200;28;20060;-54
2021/03/10 12:44:05;;;;;;;17.80;13.20;;;26.60;38.80;;;;;;5059768;28;20032;-54
2021/03/10 12:46:31;;;;;;;19.60;17.35;;;26.40;39.40;;;;;;5066779;28;20458;-53
2021/03/10 12:48:58;;;;;;;21.15;17.65;;;26.20;39.50;;;;;;5062628;28;20107;-53
2021/03/10 12:51:24;;;;;;;18.08;13.20;;;26.00;39.90;;;;;;5063483;28;20136;-55
2021/03/10 12:53:49;;;;;;;18.50;9.30;;;25.80;40.30;;;;;;5067100;28;20103;-54
2021/03/10 12:56:15;;;;;;;26.20;10.88;;;25.60;40.60;;;;;;5068183;28;20036;-53
2021/03/10 12:58:41;;;;;;;49.85;11.98;;;25.40;40.90;;;;;;5062868;28;20024;-55
2021/03/10 13:01:07;;;;;;;23.02;8.80;;;25.30;41.50;;;;;;5067179;28;20036;-54
2021/03/10 13:03:33;;;;;;;25.13;7.57;;;25.20;41.50;;;;;;5068952;28;20032;-56
2021/03/10 13:05:59;;;;;;;14.85;7.15;;;25.10;41.70;;;;;;5068933;28;20017;-55
2021/03/10 13:08:25;;;;;;;22.85;7.45;;;24.90;41.90;;;;;;5069055;28;20554;-55
2021/03/10 13:10:51;;;;;;;13.30;6.68;;;24.90;42.20;;;;;;5085696;28;20058;-55
2021/03/10 13:13:17;;;;;;;16.80;6.00;;;24.70;42.30;;;;;;5086628;28;20033;-56
2021/03/10 13:15:43;;;;;;;12.30;5.90;;;24.70;42.60;;;;;;5074887;28;20078;-55
2021/03/10 13:18:09;;;;;;;11.48;4.68;;;24.60;42.70;;;;;;5096399;28;20441;-57
2021/03/10 13:20:35;;;;;;;13.43;6.13;;;24.50;42.90;;;;;;5095418;28;20024;-55
2021/03/10 13:23:02;;;;;;;12.45;5.82;;;24.50;43.10;;;;;;5077722;28;20058;-55
2021/03/10 13:25:28;;;;;;;14.95;5.80;;;24.40;43.30;;;;;;5067922;28;20025;-55